sensor_id;sensor_type;location;lat;lon;timestamp;P1;durP1;ratioP1;P2;durP2;ratioP2
30303;SDS011;17112;48.636;10.152;2023-08-06T00:00:05;2.72;;;2.00;;
30303;SDS011;17112;48.636;10.152;2023-08-06T00:02:31;2.60;;;2.00;;
30303;SDS011;17112;48.636;10.152;2023-08-06T00:04:56;3.20;;;2.10;;
30303;SDS011;17112;48.636;10.152;2023-08-06T00:07:22;2.88;;;2.25;;
30303;SDS011;17112;48.636;10.152;2023-08-06T00:09:48;4.20;;;1.95;;
30303;SDS011;17112;48.636;10.152;2023-08-06T00:12:13;2.65;;;1.90;;
30303;SDS011;17112;48.636;10.152;2023-08-06T00:14:39;3.97;;;2.20;;
30303;SDS011;17112;48.636;10.152;2023-08-06T00:17:05;2.28;;;1.90;;
30303;SDS011;17112;48.636;10.152;2023-08-06T00:19:32;3.08;;;2.20;;
30303;SDS011;17112;48.636;10.152;2023-08-06T00:21:57;5.07;;;2.35;;
30303;SDS011;17112;48.636;10.152;2023-08-06T00:24:23;3.72;;;2.30;;
30303;SDS011;17112;48.636;10.152;2023-08-06T00:26:49;5.00;;;2.30;;
30303;SDS011;17112;48.636;10.152;2023-08-06T00:29:14;2.67;;;2.15;;
30303;SDS011;17112;48.636;10.152;2023-08-06T00:31:40;3.90;;;2.22;;
30303;SDS011;17112;48.636;10.152;2023-08-06T00:34:06;4.28;;;2.65;;
30303;SDS011;17112;48.636;10.152;2023-08-06T00:36:31;5.28;;;2.47;;
30303;SDS011;17112;48.636;10.152;2023-08-06T00:38:57;3.17;;;2.38;;
30303;SDS011;17112;48.636;10.152;2023-08-06T00:41:23;7.07;;;2.15;;
30303;SDS011;17112;48.636;10.152;2023-08-06T00:43:49;5.28;;;2.60;;
30303;SDS011;17112;48.636;10.152;2023-08-06T00:46:14;4.80;;;2.80;;
30303;SDS011;17112;48.636;10.152;2023-08-06T00:48:40;3.75;;;2.35;;
30303;SDS011;17112;48.636;10.152;2023-08-06T00:51:07;4.47;;;2.83;;
30303;SDS011;17112;48.636;10.152;2023-08-06T00:53:35;6.05;;;2.75;;
30303;SDS011;17112;48.636;10.152;2023-08-06T00:56:02;5.72;;;2.65;;
30303;SDS011;17112;48.636;10.152;2023-08-06T00:58:28;5.97;;;3.05;;
30303;SDS011;17112;48.636;10.152;2023-08-06T01:00:54;3.95;;;3.00;;
30303;SDS011;17112;48.636;10.152;2023-08-06T01:03:20;3.92;;;2.78;;
30303;SDS011;17112;48.636;10.152;2023-08-06T01:05:46;4.72;;;3.05;;
30303;SDS011;17112;48.636;10.152;2023-08-06T01:08:15;4.60;;;2.95;;
30303;SDS011;17112;48.636;10.152;2023-08-06T01:13:53;5.65;;;3.08;;
30303;SDS011;17112;48.636;10.152;2023-08-06T01:16:24;6.18;;;3.63;;
30303;SDS011;17112;48.636;10.152;2023-08-06T01:18:50;5.03;;;2.78;;
30303;SDS011;17112;48.636;10.152;2023-08-06T01:21:16;4.95;;;3.65;;
30303;SDS011;17112;48.636;10.152;2023-08-06T01:23:42;5.05;;;3.30;;
30303;SDS011;17112;48.636;10.152;2023-08-06T01:31:15;5.28;;;3.80;;
30303;SDS011;17112;48.636;10.152;2023-08-06T01:33:44;6.43;;;3.50;;
30303;SDS011;17112;48.636;10.152;2023-08-06T01:36:12;5.20;;;3.35;;
30303;SDS011;17112;48.636;10.152;2023-08-06T01:38:41;4.30;;;2.90;;
30303;SDS011;17112;48.636;10.152;2023-08-06T01:41:07;7.68;;;3.25;;
30303;SDS011;17112;48.636;10.152;2023-08-06T01:43:32;7.47;;;3.05;;
30303;SDS011;17112;48.636;10.152;2023-08-06T01:45:58;5.85;;;3.05;;
30303;SDS011;17112;48.636;10.152;2023-08-06T01:48:23;5.05;;;3.53;;
30303;SDS011;17112;48.636;10.152;2023-08-06T01:50:49;6.57;;;3.30;;
30303;SDS011;17112;48.636;10.152;2023-08-06T01:53:15;6.78;;;3.17;;
30303;SDS011;17112;48.636;10.152;2023-08-06T01:55:40;4.97;;;3.30;;
30303;SDS011;17112;48.636;10.152;2023-08-06T01:58:06;3.90;;;3.22;;
30303;SDS011;17112;48.636;10.152;2023-08-06T02:00:32;7.82;;;3.58;;
30303;SDS011;17112;48.636;10.152;2023-08-06T02:02:57;6.85;;;3.15;;
30303;SDS011;17112;48.636;10.152;2023-08-06T02:05:23;3.58;;;3.10;;
30303;SDS011;17112;48.636;10.152;2023-08-06T02:07:48;4.47;;;3.25;;
30303;SDS011;17112;48.636;10.152;2023-08-06T02:10:14;6.63;;;3.25;;
30303;SDS011;17112;48.636;10.152;2023-08-06T02:12:40;3.20;;;2.85;;
30303;SDS011;17112;48.636;10.152;2023-08-06T02:15:06;4.80;;;2.95;;
30303;SDS011;17112;48.636;10.152;2023-08-06T02:17:31;4.20;;;2.80;;
30303;SDS011;17112;48.636;10.152;2023-08-06T02:19:57;4.70;;;2.53;;
30303;SDS011;17112;48.636;10.152;2023-08-06T02:22:23;4.82;;;2.85;;
30303;SDS011;17112;48.636;10.152;2023-08-06T02:24:49;3.00;;;2.65;;
30303;SDS011;17112;48.636;10.152;2023-08-06T02:27:14;5.07;;;3.08;;
30303;SDS011;17112;48.636;10.152;2023-08-06T02:29:40;3.78;;;2.90;;
30303;SDS011;17112;48.636;10.152;2023-08-06T02:32:06;3.67;;;2.92;;
30303;SDS011;17112;48.636;10.152;2023-08-06T02:34:32;3.83;;;3.10;;
30303;SDS011;17112;48.636;10.152;2023-08-06T02:36:58;3.03;;;2.72;;
30303;SDS011;17112;48.636;10.152;2023-08-06T02:39:24;4.93;;;3.17;;
30303;SDS011;17112;48.636;10.152;2023-08-06T02:41:50;4.65;;;2.85;;
30303;SDS011;17112;48.636;10.152;2023-08-06T02:44:16;4.60;;;2.83;;
30303;SDS011;17112;48.636;10.152;2023-08-06T02:46:41;5.72;;;3.00;;
30303;SDS011;17112;48.636;10.152;2023-08-06T02:49:09;3.60;;;2.47;;
30303;SDS011;17112;48.636;10.152;2023-08-06T02:51:34;5.43;;;3.40;;
30303;SDS011;17112;48.636;10.152;2023-08-06T02:54:00;7.15;;;3.30;;
30303;SDS011;17112;48.636;10.152;2023-08-06T02:56:26;5.22;;;3.47;;
30303;SDS011;17112;48.636;10.152;2023-08-06T02:58:51;3.88;;;3.20;;
30303;SDS011;17112;48.636;10.152;2023-08-06T03:01:17;3.33;;;3.03;;
30303;SDS011;17112;48.636;10.152;2023-08-06T03:03:42;3.85;;;3.10;;
30303;SDS011;17112;48.636;10.152;2023-08-06T03:06:08;4.78;;;3.13;;
30303;SDS011;17112;48.636;10.152;2023-08-06T03:08:34;4.70;;;2.85;;
30303;SDS011;17112;48.636;10.152;2023-08-06T03:11:00;8.80;;;3.10;;
30303;SDS011;17112;48.636;10.152;2023-08-06T03:13:25;7.20;;;3.00;;
30303;SDS011;17112;48.636;10.152;2023-08-06T03:15:55;6.55;;;2.78;;
30303;SDS011;17112;48.636;10.152;2023-08-06T03:18:22;6.82;;;3.15;;
30303;SDS011;17112;48.636;10.152;2023-08-06T03:20:48;3.92;;;3.00;;
30303;SDS011;17112;48.636;10.152;2023-08-06T03:23:13;6.70;;;3.35;;
30303;SDS011;17112;48.636;10.152;2023-08-06T03:25:39;5.28;;;2.75;;
30303;SDS011;17112;48.636;10.152;2023-08-06T03:28:05;3.67;;;2.88;;
30303;SDS011;17112;48.636;10.152;2023-08-06T03:30:30;5.53;;;3.20;;
30303;SDS011;17112;48.636;10.152;2023-08-06T03:32:56;5.70;;;3.42;;
30303;SDS011;17112;48.636;10.152;2023-08-06T03:35:22;5.22;;;3.85;;
30303;SDS011;17112;48.636;10.152;2023-08-06T03:37:47;5.47;;;3.00;;
30303;SDS011;17112;48.636;10.152;2023-08-06T03:40:14;5.10;;;3.00;;
30303;SDS011;17112;48.636;10.152;2023-08-06T03:42:40;4.13;;;3.05;;
30303;SDS011;17112;48.636;10.152;2023-08-06T03:45:06;3.83;;;3.03;;
30303;SDS011;17112;48.636;10.152;2023-08-06T03:47:32;5.90;;;3.22;;
30303;SDS011;17112;48.636;10.152;2023-08-06T03:49:58;5.68;;;3.13;;
30303;SDS011;17112;48.636;10.152;2023-08-06T03:52:24;7.72;;;3.38;;
30303;SDS011;17112;48.636;10.152;2023-08-06T03:54:49;9.18;;;3.63;;
30303;SDS011;17112;48.636;10.152;2023-08-06T03:57:15;4.72;;;3.38;;
30303;SDS011;17112;48.636;10.152;2023-08-06T03:59:41;6.85;;;3.03;;
30303;SDS011;17112;48.636;10.152;2023-08-06T04:02:06;4.22;;;3.47;;
30303;SDS011;17112;48.636;10.152;2023-08-06T04:04:32;3.88;;;3.08;;
30303;SDS011;17112;48.636;10.152;2023-08-06T04:06:58;4.47;;;3.15;;
30303;SDS011;17112;48.636;10.152;2023-08-06T04:09:23;5.90;;;3.40;;
30303;SDS011;17112;48.636;10.152;2023-08-06T04:11:49;7.32;;;3.42;;
30303;SDS011;17112;48.636;10.152;2023-08-06T04:14:15;5.75;;;3.17;;
30303;SDS011;17112;48.636;10.152;2023-08-06T04:16:40;7.32;;;3.38;;
30303;SDS011;17112;48.636;10.152;2023-08-06T04:19:06;5.82;;;3.10;;
30303;SDS011;17112;48.636;10.152;2023-08-06T04:21:32;3.42;;;2.78;;
30303;SDS011;17112;48.636;10.152;2023-08-06T04:23:57;3.95;;;3.00;;
30303;SDS011;17112;48.636;10.152;2023-08-06T04:26:25;3.65;;;2.65;;
30303;SDS011;17112;48.636;10.152;2023-08-06T04:28:50;2.80;;;2.40;;
30303;SDS011;17112;48.636;10.152;2023-08-06T04:31:16;4.72;;;2.65;;
30303;SDS011;17112;48.636;10.152;2023-08-06T04:33:41;3.47;;;2.42;;
30303;SDS011;17112;48.636;10.152;2023-08-06T04:36:07;6.60;;;2.78;;
30303;SDS011;17112;48.636;10.152;2023-08-06T04:38:33;4.55;;;3.10;;
30303;SDS011;17112;48.636;10.152;2023-08-06T04:40:59;4.75;;;2.97;;
30303;SDS011;17112;48.636;10.152;2023-08-06T04:43:27;5.03;;;3.30;;
30303;SDS011;17112;48.636;10.152;2023-08-06T04:45:53;4.22;;;2.70;;
30303;SDS011;17112;48.636;10.152;2023-08-06T04:48:20;4.30;;;3.50;;
30303;SDS011;17112;48.636;10.152;2023-08-06T04:50:46;6.05;;;2.90;;
30303;SDS011;17112;48.636;10.152;2023-08-06T04:53:13;3.28;;;2.90;;
30303;SDS011;17112;48.636;10.152;2023-08-06T04:55:39;3.35;;;2.67;;
30303;SDS011;17112;48.636;10.152;2023-08-06T04:58:05;3.08;;;2.63;;
30303;SDS011;17112;48.636;10.152;2023-08-06T05:00:31;2.88;;;2.50;;
30303;SDS011;17112;48.636;10.152;2023-08-06T05:02:57;4.05;;;2.92;;
30303;SDS011;17112;48.636;10.152;2023-08-06T05:05:24;5.93;;;2.85;;
30303;SDS011;17112;48.636;10.152;2023-08-06T05:07:50;4.00;;;2.70;;
30303;SDS011;17112;48.636;10.152;2023-08-06T05:10:16;5.50;;;2.78;;
30303;SDS011;17112;48.636;10.152;2023-08-06T05:12:41;4.72;;;2.53;;
30303;SDS011;17112;48.636;10.152;2023-08-06T05:15:07;6.40;;;2.67;;
30303;SDS011;17112;48.636;10.152;2023-08-06T05:17:33;3.00;;;2.70;;
30303;SDS011;17112;48.636;10.152;2023-08-06T05:20:00;3.17;;;2.78;;
30303;SDS011;17112;48.636;10.152;2023-08-06T05:22:25;3.00;;;2.70;;
30303;SDS011;17112;48.636;10.152;2023-08-06T05:24:51;4.10;;;2.67;;
30303;SDS011;17112;48.636;10.152;2023-08-06T05:27:17;6.35;;;3.00;;
30303;SDS011;17112;48.636;10.152;2023-08-06T05:29:44;7.03;;;2.55;;
30303;SDS011;17112;48.636;10.152;2023-08-06T05:32:10;3.05;;;2.72;;
30303;SDS011;17112;48.636;10.152;2023-08-06T05:34:36;5.22;;;2.40;;
30303;SDS011;17112;48.636;10.152;2023-08-06T05:37:02;3.85;;;2.80;;
30303;SDS011;17112;48.636;10.152;2023-08-06T05:39:28;3.35;;;2.63;;
30303;SDS011;17112;48.636;10.152;2023-08-06T05:41:54;4.22;;;2.30;;
30303;SDS011;17112;48.636;10.152;2023-08-06T05:44:20;3.20;;;2.38;;
30303;SDS011;17112;48.636;10.152;2023-08-06T05:46:46;3.65;;;2.50;;
30303;SDS011;17112;48.636;10.152;2023-08-06T05:49:14;3.03;;;2.13;;
30303;SDS011;17112;48.636;10.152;2023-08-06T05:51:41;5.70;;;2.33;;
30303;SDS011;17112;48.636;10.152;2023-08-06T05:54:06;3.05;;;2.10;;
30303;SDS011;17112;48.636;10.152;2023-08-06T05:56:32;3.78;;;2.30;;
30303;SDS011;17112;48.636;10.152;2023-08-06T05:58:58;3.92;;;2.10;;
30303;SDS011;17112;48.636;10.152;2023-08-06T06:01:23;3.35;;;2.00;;
30303;SDS011;17112;48.636;10.152;2023-08-06T06:03:49;2.65;;;1.98;;
30303;SDS011;17112;48.636;10.152;2023-08-06T06:06:15;1.98;;;1.60;;
30303;SDS011;17112;48.636;10.152;2023-08-06T06:08:41;3.40;;;2.13;;
30303;SDS011;17112;48.636;10.152;2023-08-06T06:11:07;1.95;;;1.70;;
30303;SDS011;17112;48.636;10.152;2023-08-06T06:13:32;4.45;;;1.80;;
30303;SDS011;17112;48.636;10.152;2023-08-06T06:15:58;3.92;;;2.00;;
30303;SDS011;17112;48.636;10.152;2023-08-06T06:18:24;5.45;;;2.10;;
30303;SDS011;17112;48.636;10.152;2023-08-06T06:20:49;2.35;;;1.20;;
30303;SDS011;17112;48.636;10.152;2023-08-06T06:23:15;2.95;;;1.55;;
30303;SDS011;17112;48.636;10.152;2023-08-06T06:25:46;5.80;;;1.50;;
30303;SDS011;17112;48.636;10.152;2023-08-06T06:28:13;4.55;;;1.65;;
30303;SDS011;17112;48.636;10.152;2023-08-06T06:30:40;3.45;;;1.65;;
30303;SDS011;17112;48.636;10.152;2023-08-06T06:33:07;2.13;;;1.42;;
30303;SDS011;17112;48.636;10.152;2023-08-06T06:35:33;3.08;;;1.58;;
30303;SDS011;17112;48.636;10.152;2023-08-06T06:37:59;4.25;;;1.48;;
30303;SDS011;17112;48.636;10.152;2023-08-06T06:40:25;3.17;;;1.40;;
30303;SDS011;17112;48.636;10.152;2023-08-06T06:42:51;4.13;;;1.42;;
30303;SDS011;17112;48.636;10.152;2023-08-06T06:45:17;3.35;;;1.25;;
30303;SDS011;17112;48.636;10.152;2023-08-06T06:47:42;3.88;;;1.40;;
30303;SDS011;17112;48.636;10.152;2023-08-06T06:50:08;5.63;;;1.25;;
30303;SDS011;17112;48.636;10.152;2023-08-06T06:52:34;2.10;;;1.38;;
30303;SDS011;17112;48.636;10.152;2023-08-06T06:55:00;1.40;;;1.10;;
30303;SDS011;17112;48.636;10.152;2023-08-06T06:57:26;3.58;;;1.20;;
30303;SDS011;17112;48.636;10.152;2023-08-06T06:59:51;2.15;;;1.10;;
30303;SDS011;17112;48.636;10.152;2023-08-06T07:02:17;2.38;;;1.30;;
30303;SDS011;17112;48.636;10.152;2023-08-06T07:04:43;1.70;;;1.00;;
30303;SDS011;17112;48.636;10.152;2023-08-06T07:07:08;3.70;;;1.17;;
30303;SDS011;17112;48.636;10.152;2023-08-06T07:09:35;1.60;;;0.85;;
30303;SDS011;17112;48.636;10.152;2023-08-06T07:12:00;1.88;;;0.95;;
30303;SDS011;17112;48.636;10.152;2023-08-06T07:14:26;2.10;;;0.90;;
30303;SDS011;17112;48.636;10.152;2023-08-06T07:16:53;1.50;;;1.10;;
30303;SDS011;17112;48.636;10.152;2023-08-06T07:19:19;1.75;;;0.80;;
30303;SDS011;17112;48.636;10.152;2023-08-06T07:21:44;2.88;;;0.90;;
30303;SDS011;17112;48.636;10.152;2023-08-06T07:24:10;1.80;;;0.90;;
30303;SDS011;17112;48.636;10.152;2023-08-06T07:26:36;2.92;;;0.82;;
30303;SDS011;17112;48.636;10.152;2023-08-06T07:29:02;2.15;;;0.90;;
30303;SDS011;17112;48.636;10.152;2023-08-06T07:31:28;1.40;;;0.63;;
30303;SDS011;17112;48.636;10.152;2023-08-06T07:33:54;2.92;;;0.80;;
30303;SDS011;17112;48.636;10.152;2023-08-06T07:36:20;2.72;;;0.60;;
30303;SDS011;17112;48.636;10.152;2023-08-06T07:38:45;1.15;;;0.60;;
30303;SDS011;17112;48.636;10.152;2023-08-06T07:41:12;1.73;;;0.70;;
30303;SDS011;17112;48.636;10.152;2023-08-06T07:43:38;0.95;;;0.50;;
30303;SDS011;17112;48.636;10.152;2023-08-06T07:46:03;1.83;;;0.70;;
30303;SDS011;17112;48.636;10.152;2023-08-06T07:48:29;1.10;;;0.57;;
30303;SDS011;17112;48.636;10.152;2023-08-06T07:50:55;1.73;;;0.63;;
30303;SDS011;17112;48.636;10.152;2023-08-06T07:53:22;1.42;;;0.60;;
30303;SDS011;17112;48.636;10.152;2023-08-06T07:55:51;1.13;;;0.50;;
30303;SDS011;17112;48.636;10.152;2023-08-06T07:58:19;2.72;;;0.60;;
30303;SDS011;17112;48.636;10.152;2023-08-06T08:00:45;0.65;;;0.38;;
30303;SDS011;17112;48.636;10.152;2023-08-06T08:03:12;0.57;;;0.35;;
30303;SDS011;17112;48.636;10.152;2023-08-06T08:05:39;0.98;;;0.43;;
30303;SDS011;17112;48.636;10.152;2023-08-06T08:08:05;0.50;;;0.50;;
30303;SDS011;17112;48.636;10.152;2023-08-06T08:10:32;1.33;;;0.50;;
30303;SDS011;17112;48.636;10.152;2023-08-06T08:12:58;0.63;;;0.40;;
30303;SDS011;17112;48.636;10.152;2023-08-06T08:15:24;1.13;;;0.40;;
30303;SDS011;17112;48.636;10.152;2023-08-06T08:17:53;1.23;;;0.60;;
30303;SDS011;17112;48.636;10.152;2023-08-06T08:20:20;1.23;;;0.60;;
30303;SDS011;17112;48.636;10.152;2023-08-06T08:22:46;1.55;;;0.50;;
30303;SDS011;17112;48.636;10.152;2023-08-06T08:25:12;1.30;;;0.50;;
30303;SDS011;17112;48.636;10.152;2023-08-06T08:27:38;0.57;;;0.40;;
30303;SDS011;17112;48.636;10.152;2023-08-06T08:30:04;1.52;;;0.50;;
30303;SDS011;17112;48.636;10.152;2023-08-06T08:32:30;0.52;;;0.50;;
30303;SDS011;17112;48.636;10.152;2023-08-06T08:34:56;0.50;;;0.40;;
30303;SDS011;17112;48.636;10.152;2023-08-06T08:37:22;1.35;;;0.57;;
30303;SDS011;17112;48.636;10.152;2023-08-06T08:39:48;0.50;;;0.40;;
30303;SDS011;17112;48.636;10.152;2023-08-06T08:42:15;0.52;;;0.40;;
30303;SDS011;17112;48.636;10.152;2023-08-06T08:44:44;0.35;;;0.35;;
30303;SDS011;17112;48.636;10.152;2023-08-06T08:47:10;0.63;;;0.40;;
30303;SDS011;17112;48.636;10.152;2023-08-06T08:49:36;0.75;;;0.40;;
30303;SDS011;17112;48.636;10.152;2023-08-06T08:52:03;3.40;;;0.40;;
30303;SDS011;17112;48.636;10.152;2023-08-06T08:54:35;0.80;;;0.50;;
30303;SDS011;17112;48.636;10.152;2023-08-06T08:57:03;0.30;;;0.30;;
30303;SDS011;17112;48.636;10.152;2023-08-06T08:59:29;0.50;;;0.30;;
30303;SDS011;17112;48.636;10.152;2023-08-06T09:01:58;0.63;;;0.30;;
30303;SDS011;17112;48.636;10.152;2023-08-06T09:04:26;0.77;;;0.35;;
30303;SDS011;17112;48.636;10.152;2023-08-06T09:06:54;0.85;;;0.30;;
30303;SDS011;17112;48.636;10.152;2023-08-06T09:09:26;0.30;;;0.30;;
30303;SDS011;17112;48.636;10.152;2023-08-06T09:11:59;0.98;;;0.30;;
30303;SDS011;17112;48.636;10.152;2023-08-06T09:14:27;0.22;;;0.22;;
30303;SDS011;17112;48.636;10.152;2023-08-06T09:16:53;0.60;;;0.40;;
30303;SDS011;17112;48.636;10.152;2023-08-06T09:19:19;0.47;;;0.30;;
30303;SDS011;17112;48.636;10.152;2023-08-06T09:21:45;0.50;;;0.30;;
30303;SDS011;17112;48.636;10.152;2023-08-06T09:24:14;0.40;;;0.40;;
30303;SDS011;17112;48.636;10.152;2023-08-06T09:26:41;0.77;;;0.50;;
30303;SDS011;17112;48.636;10.152;2023-08-06T09:29:08;0.77;;;0.40;;
30303;SDS011;17112;48.636;10.152;2023-08-06T09:31:42;0.35;;;0.30;;
30303;SDS011;17112;48.636;10.152;2023-08-06T09:34:19;0.63;;;0.20;;
30303;SDS011;17112;48.636;10.152;2023-08-06T09:36:50;3.22;;;0.30;;
30303;SDS011;17112;48.636;10.152;2023-08-06T09:39:20;0.30;;;0.20;;
30303;SDS011;17112;48.636;10.152;2023-08-06T09:41:55;1.55;;;0.22;;
30303;SDS011;17112;48.636;10.152;2023-08-06T09:44:26;1.30;;;0.20;;
30303;SDS011;17112;48.636;10.152;2023-08-06T09:46:54;0.22;;;0.22;;
30303;SDS011;17112;48.636;10.152;2023-08-06T09:49:28;0.20;;;0.20;;
30303;SDS011;17112;48.636;10.152;2023-08-06T09:52:09;0.32;;;0.30;;
30303;SDS011;17112;48.636;10.152;2023-08-06T09:54:37;0.20;;;0.20;;
30303;SDS011;17112;48.636;10.152;2023-08-06T09:57:03;0.73;;;0.30;;
30303;SDS011;17112;48.636;10.152;2023-08-06T09:59:30;0.30;;;0.30;;
30303;SDS011;17112;48.636;10.152;2023-08-06T10:01:57;0.20;;;0.20;;
30303;SDS011;17112;48.636;10.152;2023-08-06T10:04:23;0.45;;;0.22;;
30303;SDS011;17112;48.636;10.152;2023-08-06T10:06:50;0.90;;;0.20;;
30303;SDS011;17112;48.636;10.152;2023-08-06T10:09:16;0.43;;;0.30;;
30303;SDS011;17112;48.636;10.152;2023-08-06T10:11:47;0.30;;;0.30;;
30303;SDS011;17112;48.636;10.152;2023-08-06T10:14:21;0.20;;;0.20;;
30303;SDS011;17112;48.636;10.152;2023-08-06T10:16:53;0.85;;;0.30;;
30303;SDS011;17112;48.636;10.152;2023-08-06T10:19:22;0.20;;;0.20;;
30303;SDS011;17112;48.636;10.152;2023-08-06T10:24:56;0.20;;;0.20;;
30303;SDS011;17112;48.636;10.152;2023-08-06T10:27:39;0.73;;;0.43;;
30303;SDS011;17112;48.636;10.152;2023-08-06T10:33:00;0.45;;;0.20;;
30303;SDS011;17112;48.636;10.152;2023-08-06T10:38:09;0.75;;;0.30;;
30303;SDS011;17112;48.636;10.152;2023-08-06T10:40:36;1.67;;;0.20;;
30303;SDS011;17112;48.636;10.152;2023-08-06T10:43:04;0.20;;;0.20;;
30303;SDS011;17112;48.636;10.152;2023-08-06T10:45:35;0.43;;;0.30;;
30303;SDS011;17112;48.636;10.152;2023-08-06T10:48:02;1.23;;;0.30;;
30303;SDS011;17112;48.636;10.152;2023-08-06T10:50:28;0.20;;;0.20;;
30303;SDS011;17112;48.636;10.152;2023-08-06T10:52:54;0.25;;;0.22;;
30303;SDS011;17112;48.636;10.152;2023-08-06T10:57:52;0.20;;;0.20;;
30303;SDS011;17112;48.636;10.152;2023-08-06T11:00:20;0.40;;;0.28;;
30303;SDS011;17112;48.636;10.152;2023-08-06T11:02:48;0.38;;;0.20;;
30303;SDS011;17112;48.636;10.152;2023-08-06T11:05:14;0.43;;;0.25;;
30303;SDS011;17112;48.636;10.152;2023-08-06T11:07:40;0.25;;;0.20;;
30303;SDS011;17112;48.636;10.152;2023-08-06T11:10:08;0.20;;;0.20;;
30303;SDS011;17112;48.636;10.152;2023-08-06T11:12:34;0.30;;;0.30;;
30303;SDS011;17112;48.636;10.152;2023-08-06T11:15:03;2.28;;;0.20;;
30303;SDS011;17112;48.636;10.152;2023-08-06T11:17:30;0.20;;;0.20;;
30303;SDS011;17112;48.636;10.152;2023-08-06T11:20:04;0.35;;;0.20;;
30303;SDS011;17112;48.636;10.152;2023-08-06T11:22:31;1.60;;;0.20;;
30303;SDS011;17112;48.636;10.152;2023-08-06T11:24:57;0.20;;;0.20;;
30303;SDS011;17112;48.636;10.152;2023-08-06T11:27:23;1.70;;;0.20;;
30303;SDS011;17112;48.636;10.152;2023-08-06T11:29:51;0.10;;;0.10;;
30303;SDS011;17112;48.636;10.152;2023-08-06T11:32:17;0.20;;;0.20;;
30303;SDS011;17112;48.636;10.152;2023-08-06T11:34:43;0.20;;;0.20;;
30303;SDS011;17112;48.636;10.152;2023-08-06T11:37:09;0.20;;;0.20;;
30303;SDS011;17112;48.636;10.152;2023-08-06T11:39:36;0.30;;;0.20;;
30303;SDS011;17112;48.636;10.152;2023-08-06T11:42:03;0.20;;;0.20;;
30303;SDS011;17112;48.636;10.152;2023-08-06T11:44:34;0.20;;;0.20;;
30303;SDS011;17112;48.636;10.152;2023-08-06T11:47:01;0.20;;;0.20;;
30303;SDS011;17112;48.636;10.152;2023-08-06T11:49:39;0.22;;;0.20;;
30303;SDS011;17112;48.636;10.152;2023-08-06T11:52:16;0.25;;;0.25;;
30303;SDS011;17112;48.636;10.152;2023-08-06T11:55:04;0.30;;;0.20;;
30303;SDS011;17112;48.636;10.152;2023-08-06T11:57:33;0.75;;;0.30;;
30303;SDS011;17112;48.636;10.152;2023-08-06T12:00:06;0.45;;;0.20;;
30303;SDS011;17112;48.636;10.152;2023-08-06T12:02:34;0.17;;;0.17;;
30303;SDS011;17112;48.636;10.152;2023-08-06T12:07:31;0.20;;;0.20;;
30303;SDS011;17112;48.636;10.152;2023-08-06T12:09:58;0.30;;;0.30;;
30303;SDS011;17112;48.636;10.152;2023-08-06T12:12:24;0.20;;;0.20;;
30303;SDS011;17112;48.636;10.152;2023-08-06T12:14:50;0.55;;;0.20;;
30303;SDS011;17112;48.636;10.152;2023-08-06T12:17:16;0.20;;;0.20;;
30303;SDS011;17112;48.636;10.152;2023-08-06T12:19:42;0.22;;;0.20;;
30303;SDS011;17112;48.636;10.152;2023-08-06T12:22:09;0.30;;;0.30;;
30303;SDS011;17112;48.636;10.152;2023-08-06T12:24:34;0.20;;;0.20;;
30303;SDS011;17112;48.636;10.152;2023-08-06T12:27:00;0.75;;;0.55;;
30303;SDS011;17112;48.636;10.152;2023-08-06T12:29:27;0.20;;;0.20;;
30303;SDS011;17112;48.636;10.152;2023-08-06T12:31:53;0.20;;;0.20;;
30303;SDS011;17112;48.636;10.152;2023-08-06T12:34:19;0.30;;;0.30;;
30303;SDS011;17112;48.636;10.152;2023-08-06T12:36:44;0.73;;;0.30;;
30303;SDS011;17112;48.636;10.152;2023-08-06T12:39:10;0.82;;;0.40;;
30303;SDS011;17112;48.636;10.152;2023-08-06T12:41:36;0.30;;;0.30;;
30303;SDS011;17112;48.636;10.152;2023-08-06T12:44:01;0.40;;;0.30;;
30303;SDS011;17112;48.636;10.152;2023-08-06T12:46:27;0.20;;;0.20;;
30303;SDS011;17112;48.636;10.152;2023-08-06T12:48:53;0.30;;;0.30;;
30303;SDS011;17112;48.636;10.152;2023-08-06T12:51:18;0.40;;;0.30;;
30303;SDS011;17112;48.636;10.152;2023-08-06T12:53:44;0.30;;;0.30;;
30303;SDS011;17112;48.636;10.152;2023-08-06T12:56:10;0.30;;;0.30;;
30303;SDS011;17112;48.636;10.152;2023-08-06T12:58:35;1.48;;;0.30;;
30303;SDS011;17112;48.636;10.152;2023-08-06T13:01:04;0.40;;;0.40;;
30303;SDS011;17112;48.636;10.152;2023-08-06T13:03:30;0.30;;;0.30;;
30303;SDS011;17112;48.636;10.152;2023-08-06T13:05:56;0.30;;;0.30;;
30303;SDS011;17112;48.636;10.152;2023-08-06T13:08:22;0.45;;;0.40;;
30303;SDS011;17112;48.636;10.152;2023-08-06T13:10:48;0.30;;;0.30;;
30303;SDS011;17112;48.636;10.152;2023-08-06T13:13:14;0.40;;;0.40;;
30303;SDS011;17112;48.636;10.152;2023-08-06T13:15:39;1.65;;;0.40;;
30303;SDS011;17112;48.636;10.152;2023-08-06T13:18:05;0.77;;;0.50;;
30303;SDS011;17112;48.636;10.152;2023-08-06T13:20:31;1.15;;;0.50;;
30303;SDS011;17112;48.636;10.152;2023-08-06T13:22:58;0.93;;;0.40;;
30303;SDS011;17112;48.636;10.152;2023-08-06T13:25:26;2.92;;;0.50;;
30303;SDS011;17112;48.636;10.152;2023-08-06T13:27:53;0.55;;;0.43;;
30303;SDS011;17112;48.636;10.152;2023-08-06T13:30:21;0.60;;;0.40;;
30303;SDS011;17112;48.636;10.152;2023-08-06T13:32:48;0.90;;;0.50;;
30303;SDS011;17112;48.636;10.152;2023-08-06T13:35:13;0.63;;;0.50;;
30303;SDS011;17112;48.636;10.152;2023-08-06T13:37:39;1.00;;;0.45;;
30303;SDS011;17112;48.636;10.152;2023-08-06T13:40:05;0.95;;;0.50;;
30303;SDS011;17112;48.636;10.152;2023-08-06T13:42:31;1.63;;;0.50;;
30303;SDS011;17112;48.636;10.152;2023-08-06T13:44:57;0.55;;;0.40;;
30303;SDS011;17112;48.636;10.152;2023-08-06T13:47:27;0.85;;;0.60;;
30303;SDS011;17112;48.636;10.152;2023-08-06T13:49:53;0.70;;;0.40;;
30303;SDS011;17112;48.636;10.152;2023-08-06T13:52:19;0.40;;;0.40;;
30303;SDS011;17112;48.636;10.152;2023-08-06T13:54:45;0.60;;;0.60;;
30303;SDS011;17112;48.636;10.152;2023-08-06T13:57:12;2.70;;;0.60;;
30303;SDS011;17112;48.636;10.152;2023-08-06T13:59:38;0.50;;;0.50;;
30303;SDS011;17112;48.636;10.152;2023-08-06T14:02:04;0.63;;;0.50;;
30303;SDS011;17112;48.636;10.152;2023-08-06T14:04:29;0.40;;;0.40;;
30303;SDS011;17112;48.636;10.152;2023-08-06T14:06:55;0.50;;;0.50;;
30303;SDS011;17112;48.636;10.152;2023-08-06T14:09:22;1.17;;;0.60;;
30303;SDS011;17112;48.636;10.152;2023-08-06T14:11:48;0.73;;;0.63;;
30303;SDS011;17112;48.636;10.152;2023-08-06T14:14:14;0.95;;;0.50;;
30303;SDS011;17112;48.636;10.152;2023-08-06T14:16:40;1.85;;;0.40;;
30303;SDS011;17112;48.636;10.152;2023-08-06T14:19:07;0.98;;;0.47;;
30303;SDS011;17112;48.636;10.152;2023-08-06T14:21:33;1.08;;;0.50;;
30303;SDS011;17112;48.636;10.152;2023-08-06T14:23:58;3.83;;;0.50;;
30303;SDS011;17112;48.636;10.152;2023-08-06T14:26:24;0.50;;;0.50;;
30303;SDS011;17112;48.636;10.152;2023-08-06T14:28:50;1.65;;;0.55;;
30303;SDS011;17112;48.636;10.152;2023-08-06T14:31:19;0.50;;;0.50;;
30303;SDS011;17112;48.636;10.152;2023-08-06T14:33:45;1.15;;;0.60;;
30303;SDS011;17112;48.636;10.152;2023-08-06T14:36:11;0.70;;;0.60;;
30303;SDS011;17112;48.636;10.152;2023-08-06T14:38:37;0.90;;;0.50;;
30303;SDS011;17112;48.636;10.152;2023-08-06T14:41:03;1.55;;;0.50;;
30303;SDS011;17112;48.636;10.152;2023-08-06T14:43:28;0.80;;;0.50;;
30303;SDS011;17112;48.636;10.152;2023-08-06T14:45:54;0.93;;;0.50;;
30303;SDS011;17112;48.636;10.152;2023-08-06T14:48:20;1.33;;;0.60;;
30303;SDS011;17112;48.636;10.152;2023-08-06T14:50:45;0.50;;;0.50;;